»·PEaware :: THT3034 AYPY-KSAN

THT3034 :: AYPY-KSAN

FLIGHT INFORMATION

Flight Status: Arrived
Operator:
Air Tahiti Nui
More flights by this operator :: More flights under this callsign
Pilot: Alan J. (5709)
Aircraft: Unknown
(A359)
More flights by this aircraft type
Origin: AYPY Jacksons
Papua New Guinea
Destination: KSAN San Diego Intl-Lindbergh
United States
More flights between these airports :: More routes between these airports
Route: +PY B589 MAJ 09E75 12E79 15N75 17N71 19N66 22N62 CLUTS R465 CIVIT R585 AUDIA SXC BAYVU5
File this flight plan on PilotEdge
Remarks:
Altitude:
(Current/Filed)
41,000ft
Speed:
(Current/Filed)
480kts
Departed: 09-Oct-17 02:48 PM
Arrived: 09-Oct-17 03:44 PM
Distance/Time
Traveled:
5985nm/0:55
Distance/Time
To Go:
Arrived

Flight Plot

Page will automatically refresh every two minutes.

Flight plan parsing failed; only flown route is shown


Map Options




Map Legend


Flown Route
Filed Route
Departure Airport
Arrival Airport
Navaid (VOR, NDB)
Fix

Horizontal Profiles

Position Reports

Time Latitude Longitude Heading Altitude Ground
Speed
09-Oct-17 14:51 34.156172 -123.617706 74 41002ft 521kts
09-Oct-17 14:52 34.186792 -123.446801 74 40996ft 521kts
09-Oct-17 14:53 34.216110 -123.279760 75 40968ft 521kts
09-Oct-17 14:54 34.242522 -123.107997 84 40987ft 525kts
09-Oct-17 14:55 34.223442 -122.933888 100 40980ft 524kts
09-Oct-17 14:56 34.194177 -122.762605 100 40979ft 521kts
09-Oct-17 14:57 34.165038 -122.591396 100 40979ft 521kts
09-Oct-17 14:58 34.135737 -122.420535 100 40979ft 521kts
09-Oct-17 14:59 34.106207 -122.249583 100 40968ft 521kts
09-Oct-17 15:00 34.076497 -122.079150 101 40979ft 521kts
09-Oct-17 15:01 34.046355 -121.907911 101 40979ft 521kts
09-Oct-17 15:02 34.016117 -121.737621 101 40979ft 521kts
09-Oct-17 15:03 33.985594 -121.567152 101 40979ft 521kts
09-Oct-17 15:04 33.954832 -121.396778 100 40979ft 521kts
09-Oct-17 15:05 33.924020 -121.227204 101 40973ft 521kts
09-Oct-17 15:06 33.892825 -121.057553 102 40965ft 516kts
09-Oct-17 15:07 33.861367 -120.890235 102 40971ft 511kts
09-Oct-17 15:08 33.830242 -120.723778 102 40970ft 511kts
09-Oct-17 15:09 33.798933 -120.557293 102 40970ft 511kts
09-Oct-17 15:10 33.767507 -120.391460 102 40968ft 511kts
09-Oct-17 15:11 33.736228 -120.227274 102 40954ft 511kts
09-Oct-17 15:12 33.704310 -120.061259 102 40958ft 511kts
09-Oct-17 15:13 33.672095 -119.895156 102 40964ft 511kts
09-Oct-17 15:14 33.639640 -119.729097 102 40975ft 511kts
09-Oct-17 15:15 33.607006 -119.563382 102 40977ft 511kts
09-Oct-17 15:16 33.574242 -119.398251 102 40977ft 511kts
09-Oct-17 15:17 33.541374 -119.233423 103 40965ft 513kts
09-Oct-17 15:18 33.507963 -119.067386 103 38931ft 514kts
09-Oct-17 15:19 33.474475 -118.902110 104 36344ft 507kts
09-Oct-17 15:20 33.443675 -118.751508 104 33917ft 483kts
09-Oct-17 15:21 33.412901 -118.602336 103 31386ft 464kts
09-Oct-17 15:22 33.382491 -118.455768 103 28799ft 445kts
09-Oct-17 15:23 33.360545 -118.316614 97 26200ft 428kts
09-Oct-17 15:24 33.342977 -118.179567 98 23607ft 408kts
09-Oct-17 15:25 33.325344 -118.048929 97 21022ft 390kts
09-Oct-17 15:26 33.308623 -117.926534 97 18491ft 375kts
09-Oct-17 15:27 33.292026 -117.806027 97 16612ft 362kts
09-Oct-17 15:28 33.275779 -117.689063 97 14821ft 353kts
09-Oct-17 15:29 33.254592 -117.577243 121 13943ft 348kts
09-Oct-17 15:30 33.179405 -117.505243 142 13939ft 338kts
09-Oct-17 15:31 33.104083 -117.442386 145 12266ft 320kts
09-Oct-17 15:32 33.036193 -117.388295 145 10563ft 300kts
09-Oct-17 15:33 32.968962 -117.334574 146 8934ft 280kts
09-Oct-17 15:34 32.903876 -117.282529 146 8317ft 282kts
09-Oct-17 15:35 32.839701 -117.231526 146 6980ft 276kts
09-Oct-17 15:36 32.800308 -117.161102 103 6353ft 253kts
09-Oct-17 15:37 32.783046 -117.083347 104 5941ft 240kts
09-Oct-17 15:38 32.760134 -117.008869 101 5892ft 238kts
09-Oct-17 15:39 32.747197 -116.931321 101 4958ft 238kts
09-Oct-17 15:40 32.734603 -116.853753 101 4932ft 239kts
09-Oct-17 15:41 32.695238 -116.814310 220 4928ft 224kts
09-Oct-17 15:42 32.670587 -116.880666 250 4938ft 221kts
09-Oct-17 15:43 32.674843 -116.951737 287 4472ft 224kts
09-Oct-17 15:44 32.692552 -117.019328 284 3416ft 210kts
09-Oct-17 15:45 32.707879 -117.081138 287 2535ft 172kts
09-Oct-17 15:46 32.720448 -117.136128 284 866ft 169kts
09-Oct-17 15:47 32.732104 -117.183816 285 27ft 134kts
09-Oct-17 15:48 32.735785 -117.202019 197 24ft 8kts
09-Oct-17 15:49 32.735160 -117.202310 200 24ft 8kts
09-Oct-17 15:50 32.733768 -117.203178 267 24ft 5kts
09-Oct-17 15:51 32.733766 -117.203326 269 24ft 0kts
09-Oct-17 15:52 32.733766 -117.203326 269 24ft 0kts
09-Oct-17 15:53 32.733766 -117.203326 269 24ft 0kts

Navigation Log

Ident Type
Flight plan parsing failed, navigation log unavailable